Terminal Aerodrome Forecast
Issued by NWS Albany, NY

Home | Current Version | Previous Version | Text Only | Print | Product List | Glossary On
Versions: 1 2 3 4 5 6 7 8 9 10 11 12 13 14 15 16 17
000
FTUS41 KALY 310500 RRA
TAFALB
TAF
KALB 310548Z 3106/0106 17007KT P6SM SCT035 BKN150
      TEMPO 3106/3108 OVC035
     FM310800 17007KT P6SM OVC030
     FM311500 18009KT P6SM VCSH OVC040
     FM311900 18009KT 5SM -SHRA BR OVC030 PROB30 3120/3124 3SM TSRA
      OVC020CB
     FM010100 18005KT 5SM BR VCSH OVC030=

USA.gov is the U.S. government's official web portal to all federal, state and local government web resources and services.